Callao, Virginia
Current Conditions -  °F | °C
As of 3:53 PM on Sunday 23 Nov 2014 (Local Time) from KNUI Reporting Station
Clear Clear  
Wind Chill: 52°   Ceiling: Unl
Heat Index: 52°   Visibility: 10mi
Dew Point: 42°   Wind: 6mph
Humidity: 69%   Direction: 100°E
Pressure: 30.11"   Gusts: NA
Location:  37.97°N, 76.56°W
Report Text: KNUI 232053Z AUTO 10005KT 10SM CLR 11/06 A3011 RMK AO2 SLP195 T01110056 56018
Loading
Personal Weather Stations






























Interactive Weather Map New forecast layout! Learn more

10-Day Weather Forecast

Advertisements
Track Severe Weather on mobile